createdAt,value
2019-03-17T00:00:45.475Z,98778.06
2019-03-17T00:03:35.017Z,98770.12
2019-03-17T00:06:24.567Z,98761.33
2019-03-17T00:09:14.378Z,98764.03
2019-03-17T00:12:03.760Z,98744.81
2019-03-17T00:15:04.720Z,98746.06
2019-03-17T00:17:43.770Z,98745.59
2019-03-17T00:20:34.246Z,98749.49
2019-03-17T00:23:22.833Z,98752.33
2019-03-17T00:26:12.688Z,98747.02
2019-03-17T00:29:02.159Z,98744.10
2019-03-17T00:31:50.838Z,98743.30
2019-03-17T00:34:44.277Z,98741.80
2019-03-17T00:37:30.740Z,98740.43
2019-03-17T00:40:19.371Z,98732.81
2019-03-17T00:43:09.318Z,98739.39
2019-03-17T00:45:58.878Z,98736.42
2019-03-17T00:48:47.234Z,98748.47
2019-03-17T00:51:37.061Z,98735.59
2019-03-17T00:54:26.667Z,98735.46
2019-03-17T00:57:15.629Z,98731.05
2019-03-17T01:00:05.962Z,98732.22
2019-03-17T01:02:55.810Z,98728.02
2019-03-17T01:05:45.354Z,98726.34
2019-03-17T01:08:34.439Z,98719.55
2019-03-17T01:11:24.059Z,98715.13
2019-03-17T01:14:12.437Z,98715.64
2019-03-17T01:17:01.390Z,98705.14
2019-03-17T01:19:50.993Z,98704.24
2019-03-17T01:22:40.686Z,98698.29
2019-03-17T01:25:30.405Z,98695.44
2019-03-17T01:28:19.224Z,98694.93
2019-03-17T01:31:09.198Z,98692.92
2019-03-17T01:33:59.257Z,98690.55
2019-03-17T01:36:48.121Z,98686.20
2019-03-17T01:39:37.414Z,98679.09
2019-03-17T01:42:26.389Z,98676.44
2019-03-17T01:45:15.830Z,98675.06
2019-03-17T01:48:05.702Z,98672.41
2019-03-17T01:50:55.561Z,98671.11
2019-03-17T01:53:44.591Z,98665.91
2019-03-17T01:56:34.229Z,98670.59
2019-03-17T01:59:23.879Z,98658.63
2019-03-17T02:02:12.578Z,98656.98
2019-03-17T02:05:01.796Z,98648.02
2019-03-17T02:07:51.525Z,98639.96
2019-03-17T02:10:40.959Z,98644.78
2019-03-17T02:13:30.541Z,98631.73
2019-03-17T02:16:20.150Z,98631.09
2019-03-17T02:19:09.402Z,98620.92
2019-03-17T02:21:59.149Z,98622.23
2019-03-17T02:24:48.667Z,98621.92
2019-03-17T02:27:37.179Z,98626.29
2019-03-17T02:30:25.893Z,98628.65
2019-03-17T02:33:15.132Z,98620.11
2019-03-17T02:36:04.996Z,98614.37
2019-03-17T02:38:55.098Z,98611.52
2019-03-17T02:41:44.579Z,98603.81
2019-03-17T02:44:34.939Z,98602.04
2019-03-17T02:47:24.759Z,98602.80
2019-03-17T02:50:14.440Z,98605.70
2019-03-17T02:53:04.038Z,98601.31
2019-03-17T02:55:53.420Z,98594.94
2019-03-17T02:58:44.044Z,98601.27
2019-03-17T03:01:32.922Z,98602.92
2019-03-17T03:04:22.551Z,98597.28
2019-03-17T03:07:12.044Z,98590.55
2019-03-17T03:10:01.292Z,98590.95
2019-03-17T03:12:50.370Z,98595.28
2019-03-17T03:15:39.581Z,98596.97
2019-03-17T03:18:28.547Z,98596.15
2019-03-17T03:21:17.464Z,98602.11
2019-03-17T03:24:07.242Z,98601.91
2019-03-17T03:26:56.497Z,98595.92
2019-03-17T03:29:46.152Z,98597.17
2019-03-17T03:32:35.016Z,98596.82
2019-03-17T03:35:24.185Z,98594.81
2019-03-17T03:38:13.960Z,98590.87
2019-03-17T03:41:03.363Z,98582.02
2019-03-17T03:43:52.608Z,98583.02
2019-03-17T03:46:42.676Z,98575.91
2019-03-17T03:49:32.686Z,98573.67
2019-03-17T03:52:22.225Z,98580.42
2019-03-17T03:55:11.695Z,98576.51
2019-03-17T03:58:00.803Z,98584.30
2019-03-17T04:00:50.623Z,98584.20
2019-03-17T04:03:39.427Z,98572.80
2019-03-17T04:06:28.109Z,98577.92
2019-03-17T04:09:17.211Z,98574.66
2019-03-17T04:12:06.682Z,98572.84
2019-03-17T04:14:56.309Z,98572.31
2019-03-17T04:17:46.166Z,98571.38
2019-03-17T04:20:35.493Z,98575.25
2019-03-17T04:23:24.798Z,98573.70
2019-03-17T04:26:13.818Z,98566.02
2019-03-17T04:29:02.816Z,98564.12
2019-03-17T04:31:52.327Z,98570.30
2019-03-17T04:34:42.139Z,98573.31
2019-03-17T04:37:32.302Z,98570.96
2019-03-17T04:40:22.062Z,98566.42
2019-03-17T04:43:11.763Z,98566.81
2019-03-17T04:46:01.660Z,98562.56
2019-03-17T04:48:50.726Z,98556.47
2019-03-17T04:51:41.243Z,98562.31
2019-03-17T04:54:30.349Z,98541.47
2019-03-17T04:57:19.795Z,98558.83
2019-03-17T05:00:09.598Z,98550.23
2019-03-17T05:02:59.609Z,98557.26
2019-03-17T05:05:48.838Z,98549.28
2019-03-17T05:08:37.981Z,98549.06
2019-03-17T05:11:27.938Z,98546.22
2019-03-17T05:14:17.761Z,98541.70
2019-03-17T05:17:06.404Z,98544.57
2019-03-17T05:19:57.073Z,98547.38
2019-03-17T05:22:45.625Z,98544.48
2019-03-17T05:25:34.930Z,98543.42
2019-03-17T05:28:23.994Z,98539.83
2019-03-17T05:31:12.432Z,98536.35
2019-03-17T05:34:01.542Z,98530.36
2019-03-17T05:36:51.099Z,98539.48
2019-03-17T05:39:40.462Z,98534.27
2019-03-17T05:42:30.218Z,98531.75
2019-03-17T05:45:19.409Z,98529.43
2019-03-17T05:48:08.742Z,98530.45
2019-03-17T05:50:58.231Z,98534.16
2019-03-17T05:53:47.723Z,98530.92
2019-03-17T05:56:37.153Z,98528.72
2019-03-17T05:59:26.855Z,98537.40
2019-03-17T06:02:16.633Z,98538.17
2019-03-17T06:05:06.401Z,98535.95
2019-03-17T06:07:56.247Z,98538.27
2019-03-17T06:10:45.119Z,98533.25
2019-03-17T06:13:34.612Z,98528.20
2019-03-17T06:16:23.813Z,98531.43
2019-03-17T06:19:13.456Z,98524.75
2019-03-17T06:22:02.617Z,98531.46
2019-03-17T06:24:52.735Z,98528.30
2019-03-17T06:27:42.787Z,98537.73
2019-03-17T06:30:32.511Z,98545.89
2019-03-17T06:33:21.218Z,98542.31
2019-03-17T06:36:10.661Z,98546.84
2019-03-17T06:39:00.078Z,98541.09
2019-03-17T06:41:48.865Z,98547.39
2019-03-17T06:44:37.761Z,98541.91
2019-03-17T06:47:27.635Z,98549.86
2019-03-17T06:50:16.422Z,98539.58
2019-03-17T06:53:05.165Z,98545.80
2019-03-17T06:55:54.615Z,98542.25
2019-03-17T06:58:44.771Z,98559.96
2019-03-17T07:01:33.601Z,98568.10
2019-03-17T07:04:23.179Z,98577.03
2019-03-17T07:07:12.668Z,98583.95
2019-03-17T07:10:01.314Z,98588.78
2019-03-17T07:12:51.201Z,98594.55
2019-03-17T07:15:41.117Z,98590.83
2019-03-17T07:18:30.445Z,98588.27
2019-03-17T07:21:19.668Z,98593.38
2019-03-17T07:24:09.533Z,98593.56
2019-03-17T07:27:00.132Z,98590.78
2019-03-17T07:29:49.637Z,98600.02
2019-03-17T07:32:39.121Z,98596.48
2019-03-17T07:35:28.401Z,98587.51
2019-03-17T07:38:17.297Z,98589.81
2019-03-17T07:41:06.298Z,98589.16
2019-03-17T07:43:56.114Z,98600.57
2019-03-17T07:46:45.645Z,98588.05
2019-03-17T07:49:34.615Z,98584.78
2019-03-17T07:52:23.446Z,98592.20
2019-03-17T07:55:12.918Z,98588.86
2019-03-17T07:58:02.374Z,98592.69
2019-03-17T08:00:51.990Z,98592.25
2019-03-17T08:03:41.179Z,98589.69
2019-03-17T08:06:29.855Z,98593.63
2019-03-17T08:09:18.534Z,98581.75
2019-03-17T08:12:09.073Z,98577.06
2019-03-17T08:14:58.755Z,98578.70
2019-03-17T08:17:48.058Z,98575.16
2019-03-17T08:20:37.785Z,98563.51
2019-03-17T08:23:26.815Z,98555.42
2019-03-17T08:26:16.160Z,98564.27
2019-03-17T08:29:05.848Z,98572.04
2019-03-17T08:31:54.779Z,98568.48
2019-03-17T08:34:43.775Z,98566.84
2019-03-17T08:37:32.310Z,98579.85
2019-03-17T08:40:21.952Z,98573.06
2019-03-17T08:43:11.344Z,98569.28
2019-03-17T08:46:00.806Z,98566.24
2019-03-17T08:48:50.630Z,98568.16
2019-03-17T08:51:40.076Z,98567.87
2019-03-17T08:54:29.797Z,98575.73
2019-03-17T08:57:18.458Z,98578.63
2019-03-17T09:00:08.021Z,98586.13
2019-03-17T09:02:57.441Z,98585.34
2019-03-17T09:05:46.938Z,98595.43
2019-03-17T09:08:36.443Z,98598.18
2019-03-17T09:11:26.447Z,98600.14
2019-03-17T09:14:15.323Z,98602.29
2019-03-17T09:17:13.815Z,98590.22
2019-03-17T09:19:54.535Z,98595.78
2019-03-17T09:22:44.063Z,98593.39
2019-03-17T09:25:33.486Z,98600.14
2019-03-17T09:28:22.902Z,98600.33
2019-03-17T09:31:12.416Z,98604.07
2019-03-17T09:34:02.041Z,98593.47
2019-03-17T09:36:50.835Z,98587.62
2019-03-17T09:39:40.289Z,98597.56
2019-03-17T09:42:29.780Z,98584.66
2019-03-17T09:45:18.458Z,98604.06
2019-03-17T09:48:07.027Z,98603.07
2019-03-17T09:50:56.225Z,98613.67
2019-03-17T09:53:45.637Z,98610.23
2019-03-17T09:56:35.729Z,98607.63
2019-03-17T09:59:25.165Z,98609.56
2019-03-17T10:02:14.850Z,98618.86
2019-03-17T10:05:05.098Z,98609.53
2019-03-17T10:07:54.907Z,98603.48
2019-03-17T10:10:44.263Z,98604.29
2019-03-17T10:13:34.025Z,98588.86
2019-03-17T10:16:23.686Z,98606.80
2019-03-17T10:19:13.521Z,98605.28
2019-03-17T10:22:03.560Z,98604.45
2019-03-17T10:24:54.003Z,98608.38
2019-03-17T10:27:42.982Z,98608.36
2019-03-17T10:30:32.268Z,98605.91
2019-03-17T10:33:22.074Z,98602.47
2019-03-17T10:36:12.819Z,98600.72
2019-03-17T10:39:12.019Z,98600.26
2019-03-17T10:41:53.663Z,98596.98
2019-03-17T10:44:43.070Z,98598.48
2019-03-17T10:47:31.629Z,98603.83
2019-03-17T10:50:21.478Z,98601.53
2019-03-17T10:53:10.990Z,98608.73
2019-03-17T10:56:01.164Z,98600.92
2019-03-17T10:58:50.489Z,98593.44
2019-03-17T11:01:39.956Z,98601.61
2019-03-17T11:04:29.237Z,98595.94
2019-03-17T11:07:19.513Z,98593.63
2019-03-17T11:10:09.145Z,98603.25
2019-03-17T11:12:59.351Z,98599.02
2019-03-17T11:15:48.759Z,98585.94
2019-03-17T11:18:38.087Z,98596.21
2019-03-17T11:21:26.897Z,98596.34
2019-03-17T11:24:17.223Z,98604.80
2019-03-17T11:27:06.902Z,98607.20
2019-03-17T11:29:56.047Z,98604.41
2019-03-17T11:32:46.170Z,98603.73
2019-03-17T11:35:36.283Z,98612.33
2019-03-17T11:38:24.900Z,98604.66
2019-03-17T11:41:14.294Z,98610.81
2019-03-17T11:44:03.887Z,98602.43
2019-03-17T11:46:54.153Z,98603.25
2019-03-17T11:49:46.007Z,98601.59
2019-03-17T11:52:34.091Z,98608.55
2019-03-17T11:55:23.974Z,98613.46
2019-03-17T11:58:13.631Z,98623.04
2019-03-17T12:01:03.590Z,98639.78
2019-03-17T12:03:52.800Z,98648.86
2019-03-17T12:06:42.912Z,98645.80
2019-03-17T12:09:32.017Z,98658.51
2019-03-17T12:12:21.471Z,98683.80
2019-03-17T12:15:12.977Z,98703.88
2019-03-17T12:18:03.053Z,98729.19
2019-03-17T12:20:53.047Z,98759.83
2019-03-17T12:23:42.771Z,98760.81
2019-03-17T12:26:31.932Z,98770.64
2019-03-17T12:29:21.234Z,98789.59
2019-03-17T12:32:10.455Z,98809.83
2019-03-17T12:35:00.429Z,98807.45
2019-03-17T12:37:49.693Z,98806.23
2019-03-17T12:40:38.954Z,98816.30
2019-03-17T12:43:28.643Z,98818.95
2019-03-17T12:46:18.249Z,98808.64
2019-03-17T12:49:08.121Z,98817.45
2019-03-17T12:51:57.262Z,98818.34
2019-03-17T12:54:46.644Z,98825.93
2019-03-17T12:57:36.442Z,98828.88
2019-03-17T13:00:26.612Z,98831.39
2019-03-17T13:03:16.602Z,98830.70
2019-03-17T13:06:06.016Z,98822.61
2019-03-17T13:08:55.749Z,98830.28
2019-03-17T13:11:45.100Z,98837.00
2019-03-17T13:14:34.832Z,98829.32
2019-03-17T13:17:23.988Z,98833.34
2019-03-17T13:20:14.162Z,98840.50
2019-03-17T13:23:03.799Z,98840.25
2019-03-17T13:25:53.921Z,98828.36
2019-03-17T13:28:42.448Z,98822.94
2019-03-17T13:31:31.929Z,98803.17
2019-03-17T13:34:21.540Z,98815.94
2019-03-17T13:37:11.920Z,98834.52
2019-03-17T13:40:00.521Z,98843.80
2019-03-17T13:42:49.962Z,98836.53
2019-03-17T13:45:39.016Z,98834.45
2019-03-17T13:48:28.506Z,98838.73
2019-03-17T13:51:17.479Z,98828.30
2019-03-17T13:54:06.452Z,98827.55
2019-03-17T13:56:55.422Z,98828.70
2019-03-17T13:59:44.632Z,98840.70
2019-03-17T14:02:34.121Z,98823.48
2019-03-17T14:05:23.301Z,98848.43
2019-03-17T14:08:12.711Z,98851.70
2019-03-17T14:11:01.927Z,98842.15
2019-03-17T14:13:51.394Z,98856.24
2019-03-17T14:16:40.735Z,98860.09
2019-03-17T14:19:30.359Z,98856.78
2019-03-17T14:22:19.730Z,98862.06
2019-03-17T14:25:12.540Z,98862.93
2019-03-17T14:28:01.215Z,98866.45
2019-03-17T14:30:50.384Z,98875.05
2019-03-17T14:33:39.528Z,98875.27
2019-03-17T14:36:29.032Z,98881.95
2019-03-17T14:39:18.028Z,98874.25
2019-03-17T14:42:07.341Z,98889.54
2019-03-17T14:44:57.255Z,98889.20
2019-03-17T14:47:46.330Z,98896.59
2019-03-17T14:50:34.969Z,98901.98
2019-03-17T14:53:23.982Z,98914.52
2019-03-17T14:56:14.191Z,98903.69
2019-03-17T14:59:03.335Z,98902.64
2019-03-17T15:01:52.717Z,98915.20
2019-03-17T15:04:42.367Z,98905.45
2019-03-17T15:07:31.915Z,98923.08
2019-03-17T15:10:21.805Z,98937.90
2019-03-17T15:13:12.587Z,98946.39
2019-03-17T15:16:03.220Z,98938.15
2019-03-17T15:18:52.686Z,98930.88
2019-03-17T15:21:42.404Z,98940.52
2019-03-17T15:24:32.120Z,98942.25
2019-03-17T15:27:20.991Z,98939.62
2019-03-17T15:30:13.655Z,98938.04
2019-03-17T15:33:03.402Z,98946.75
2019-03-17T15:35:52.800Z,98937.82
2019-03-17T15:38:42.539Z,98952.53
2019-03-17T15:41:32.132Z,98945.16
2019-03-17T15:44:21.311Z,98940.77
2019-03-17T15:47:10.655Z,98935.27
2019-03-17T15:49:58.931Z,98941.16
2019-03-17T15:52:48.659Z,98946.23
2019-03-17T15:55:38.569Z,98953.97
2019-03-17T15:58:27.925Z,98943.39
2019-03-17T16:01:17.146Z,98938.18
2019-03-17T16:04:06.346Z,98938.07
2019-03-17T16:06:55.398Z,98953.03
2019-03-17T16:09:44.500Z,98944.69
2019-03-17T16:12:34.176Z,98943.03
2019-03-17T16:15:23.785Z,98946.28
2019-03-17T16:18:13.251Z,98928.61
2019-03-17T16:21:03.262Z,98934.37
2019-03-17T16:23:51.912Z,98951.07
2019-03-17T16:26:41.720Z,98967.47
2019-03-17T16:29:30.889Z,98980.86
2019-03-17T16:32:20.637Z,98991.39
2019-03-17T16:35:10.076Z,98984.06
2019-03-17T16:37:59.786Z,98996.41
2019-03-17T16:40:49.025Z,98998.83
2019-03-17T16:43:38.720Z,99013.16
2019-03-17T16:46:27.894Z,99020.98
2019-03-17T16:49:17.598Z,99056.30
2019-03-17T16:52:06.209Z,99049.36
2019-03-17T16:54:55.726Z,99044.75
2019-03-17T16:57:44.716Z,99054.87
2019-03-17T17:00:34.399Z,99075.95
2019-03-17T17:03:23.513Z,99061.97
2019-03-17T17:06:12.919Z,99078.83
2019-03-17T17:09:02.221Z,99087.52
2019-03-17T17:11:57.161Z,99083.36
2019-03-17T17:14:42.301Z,99087.82
2019-03-17T17:17:31.180Z,99093.03
2019-03-17T17:20:22.409Z,99092.40
2019-03-17T17:23:10.738Z,99093.98
2019-03-17T17:26:00.788Z,99096.94
2019-03-17T17:28:50.607Z,99100.10
2019-03-17T17:31:40.346Z,99100.70
2019-03-17T17:34:29.896Z,99091.05
2019-03-17T17:37:19.136Z,99111.00
2019-03-17T17:40:09.434Z,99120.27
2019-03-17T17:42:57.989Z,99122.70
2019-03-17T17:45:47.720Z,99127.98
2019-03-17T17:48:36.814Z,99140.47
2019-03-17T17:51:25.620Z,99150.09
2019-03-17T17:54:14.471Z,99150.55
2019-03-17T17:57:03.586Z,99165.64
2019-03-17T17:59:53.101Z,99167.73
2019-03-17T18:02:42.639Z,99155.06
2019-03-17T18:05:31.181Z,99157.77
2019-03-17T18:08:20.512Z,99133.33
2019-03-17T18:11:09.961Z,99155.75
2019-03-17T18:13:59.349Z,99184.73
2019-03-17T18:16:48.569Z,99184.37
2019-03-17T18:19:37.660Z,99200.45
2019-03-17T18:22:27.209Z,99188.18
2019-03-17T18:25:16.779Z,99180.09
2019-03-17T18:28:06.315Z,99199.64
2019-03-17T18:30:56.028Z,99212.39
2019-03-17T18:33:45.493Z,99215.87
2019-03-17T18:36:34.493Z,99202.05
2019-03-17T18:39:23.812Z,99202.84
2019-03-17T18:42:13.381Z,99203.38
2019-03-17T18:45:03.029Z,99206.63
2019-03-17T18:47:52.854Z,99192.59
2019-03-17T18:50:41.782Z,99210.97
2019-03-17T18:53:31.089Z,99219.79
2019-03-17T18:56:20.867Z,99223.63
2019-03-17T18:59:11.197Z,99229.31
2019-03-17T19:02:00.970Z,99235.75
2019-03-17T19:04:50.758Z,99240.83
2019-03-17T19:07:40.830Z,99243.88
2019-03-17T19:10:32.029Z,99250.24
2019-03-17T19:13:21.331Z,99270.57
2019-03-17T19:16:09.958Z,99280.64
2019-03-17T19:18:59.760Z,99274.09
2019-03-17T19:21:48.749Z,99280.65
2019-03-17T19:24:38.135Z,99293.98
2019-03-17T19:27:27.241Z,99292.69
2019-03-17T19:30:17.191Z,99292.56
2019-03-17T19:33:06.797Z,99307.06
2019-03-17T19:35:56.037Z,99310.42
2019-03-17T19:38:44.861Z,99321.88
2019-03-17T19:41:34.502Z,99343.55
2019-03-17T19:44:24.845Z,99349.50
2019-03-17T19:47:14.261Z,99343.10
2019-03-17T19:50:03.503Z,99340.34
2019-03-17T19:52:52.846Z,99344.11
2019-03-17T19:55:43.513Z,99350.06
2019-03-17T19:58:33.137Z,99348.80
2019-03-17T20:01:22.452Z,99345.14
2019-03-17T20:04:12.139Z,99339.14
2019-03-17T20:07:02.154Z,99356.05
2019-03-17T20:09:52.107Z,99366.22
2019-03-17T20:12:42.097Z,99368.73
2019-03-17T20:15:32.641Z,99380.91
2019-03-17T20:18:22.112Z,99383.56
2019-03-17T20:21:10.590Z,99393.31
2019-03-17T20:23:59.188Z,99394.00
2019-03-17T20:26:48.362Z,99402.90
2019-03-17T20:29:37.998Z,99414.44
2019-03-17T20:32:27.492Z,99416.18
2019-03-17T20:35:16.681Z,99421.16
2019-03-17T20:38:06.196Z,99434.44
2019-03-17T20:40:55.836Z,99434.89
2019-03-17T20:43:44.932Z,99452.37
2019-03-17T20:46:34.180Z,99454.31
2019-03-17T20:49:23.310Z,99456.09
2019-03-17T20:52:13.306Z,99460.41
2019-03-17T21:02:45.837Z,99475.98
2019-03-17T21:05:34.634Z,99475.52
2019-03-17T21:08:23.823Z,99483.88
2019-03-17T21:11:13.674Z,99496.68
2019-03-17T21:14:03.106Z,99495.77
2019-03-17T21:16:53.467Z,99496.79
2019-03-17T21:19:42.905Z,99500.19
2019-03-17T21:22:32.295Z,99498.33
2019-03-17T21:25:21.698Z,99501.45
2019-03-17T21:28:10.441Z,99503.22
2019-03-17T21:31:00.043Z,99512.14
2019-03-17T21:33:49.816Z,99517.11
2019-03-17T21:36:40.810Z,99523.53
2019-03-17T21:39:29.792Z,99531.26
2019-03-17T21:42:19.420Z,99533.09
2019-03-17T21:45:08.606Z,99537.89
2019-03-17T21:47:57.311Z,99538.81
2019-03-17T21:50:47.349Z,99541.77
2019-03-17T21:53:36.976Z,99536.59
2019-03-17T21:56:25.684Z,99540.02
2019-03-17T21:59:14.915Z,99543.42
2019-03-17T22:02:12.927Z,99551.36
2019-03-17T22:04:55.126Z,99557.52
2019-03-17T22:07:50.207Z,99553.84
2019-03-17T22:10:35.322Z,99559.00
2019-03-17T22:13:25.077Z,99554.41
2019-03-17T22:16:14.270Z,99556.34
2019-03-17T22:19:02.621Z,99566.30
2019-03-17T22:21:51.721Z,99569.23
2019-03-17T22:24:41.179Z,99569.44
2019-03-17T22:27:31.048Z,99565.37
2019-03-17T22:30:20.222Z,99573.63
2019-03-17T22:33:08.953Z,99576.39
2019-03-17T22:35:57.800Z,99565.63
2019-03-17T22:38:47.324Z,99578.23
2019-03-17T22:41:35.987Z,99573.46
2019-03-17T22:44:28.034Z,99579.88
2019-03-17T22:47:15.807Z,99578.03
2019-03-17T22:50:05.958Z,99578.59
2019-03-17T22:52:54.601Z,99581.25
2019-03-17T22:55:43.984Z,99587.23
2019-03-17T22:58:33.365Z,99599.08
2019-03-17T23:01:22.208Z,99594.06
2019-03-17T23:04:11.712Z,99595.70
2019-03-17T23:07:01.110Z,99601.41
2019-03-17T23:09:50.477Z,99603.42
2019-03-17T23:12:39.523Z,99609.72
2019-03-17T23:15:29.056Z,99602.52
2019-03-17T23:18:18.110Z,99604.44
2019-03-17T23:21:07.372Z,99602.90
2019-03-17T23:23:56.468Z,99594.63
2019-03-17T23:26:46.086Z,99604.48
2019-03-17T23:29:34.728Z,99607.34
2019-03-17T23:32:23.108Z,99603.27
2019-03-17T23:35:12.402Z,99606.05
2019-03-17T23:38:02.009Z,99602.55
2019-03-17T23:40:51.091Z,99604.37
2019-03-17T23:43:40.499Z,99607.88
2019-03-17T23:46:30.147Z,99608.59
2019-03-17T23:49:19.647Z,99608.62
2019-03-17T23:52:08.958Z,99612.15
2019-03-17T23:54:59.380Z,99605.67
2019-03-17T23:57:48.336Z,99604.34
